Time;durP1;ratioP1;P1;durP2;ratioP2;P2;SDS_P1;SDS_P2;PMS_P1;PMS_P2;Temp;Humidity;BMP_temperature;BMP_pressure;BME280_temperature;BME280_humidity;BME280_pressure;Samples;Min_cycle;Max_cycle;Signal;HPM_P1;HPM_P2
2020/12/05 00:01:55;;;;;;;38.67;24.05;;;3.30;99.90;;;;;;5046143;28;20041;-69
2020/12/05 00:04:20;;;;;;;37.90;23.85;;;3.20;99.90;;;;;;5040211;28;20057;-70
2020/12/05 00:06:46;;;;;;;33.38;21.40;;;3.30;99.90;;;;;;5035255;28;20106;-70
2020/12/05 00:09:11;;;;;;;32.55;22.50;;;3.20;99.90;;;;;;5037714;28;20037;-69
2020/12/05 00:11:37;;;;;;;32.97;22.80;;;3.20;99.90;;;;;;5029422;28;20079;-70
2020/12/05 00:14:03;;;;;;;35.60;22.05;;;3.20;99.90;;;;;;5033214;28;20462;-70
2020/12/05 00:16:29;;;;;;;30.83;21.05;;;3.20;99.90;;;;;;5039124;28;20025;-70
2020/12/05 00:18:55;;;;;;;34.33;22.50;;;3.20;99.90;;;;;;5029694;28;20024;-71
2020/12/05 00:21:24;;;;;;;32.28;21.80;;;3.20;99.90;;;;;;5031827;28;20042;-70
2020/12/05 00:23:51;;;;;;;37.20;23.05;;;3.30;99.90;;;;;;5032710;28;20086;-69
2020/12/05 00:26:18;;;;;;;34.47;22.83;;;3.30;99.90;;;;;;5032859;28;20021;-70
2020/12/05 00:28:44;;;;;;;32.58;22.08;;;3.10;99.90;;;;;;5038299;28;20061;-69
2020/12/05 00:31:14;;;;;;;31.42;20.45;;;3.20;99.90;;;;;;5026164;28;20477;-70
2020/12/05 00:33:41;;;;;;;30.70;20.70;;;3.40;99.90;;;;;;5033829;28;20037;-70
2020/12/05 00:36:08;;;;;;;35.95;21.58;;;3.50;99.90;;;;;;5033381;28;20021;-69
2020/12/05 00:38:34;;;;;;;35.88;22.73;;;3.40;99.90;;;;;;5051644;28;20009;-70
2020/12/05 00:40:59;;;;;;;32.78;21.92;;;3.30;99.90;;;;;;5060220;28;20089;-70
2020/12/05 00:43:25;;;;;;;35.33;23.42;;;3.30;99.90;;;;;;5057081;28;20033;-69
2020/12/05 00:45:50;;;;;;;35.42;22.80;;;3.20;99.90;;;;;;5058899;28;20035;-69
2020/12/05 00:48:16;;;;;;;36.67;21.55;;;3.20;99.90;;;;;;5053620;28;20052;-69
2020/12/05 00:50:42;;;;;;;37.25;22.15;;;3.10;99.90;;;;;;5043254;28;20042;-70
2020/12/05 00:53:08;;;;;;;35.28;22.50;;;3.10;99.90;;;;;;5061157;28;20095;-70
2020/12/05 00:55:33;;;;;;;34.22;21.33;;;3.10;99.90;;;;;;5048358;28;20056;-70
2020/12/05 00:57:59;;;;;;;38.03;22.90;;;3.00;99.90;;;;;;5044879;28;20443;-70
2020/12/05 01:00:24;;;;;;;36.30;22.73;;;3.00;99.90;;;;;;5052608;28;20052;-69
2020/12/05 01:02:50;;;;;;;41.00;23.35;;;3.00;99.90;;;;;;5047892;28;20041;-71
2020/12/05 01:05:16;;;;;;;37.13;22.30;;;3.00;99.90;;;;;;5059466;28;20064;-70
2020/12/05 01:07:42;;;;;;;35.85;23.02;;;3.00;99.90;;;;;;5053932;28;20021;-70
2020/12/05 01:10:07;;;;;;;34.35;22.05;;;3.10;99.90;;;;;;5043917;28;20420;-69
2020/12/05 01:12:33;;;;;;;32.90;20.90;;;3.10;99.90;;;;;;5036428;28;20026;-69
2020/12/05 01:15:02;;;;;;;35.40;22.63;;;3.10;99.90;;;;;;5040776;28;20029;-70
2020/12/05 01:17:29;;;;;;;33.10;21.92;;;3.10;99.90;;;;;;5031609;28;20033;-69
2020/12/05 01:19:56;;;;;;;34.85;22.00;;;3.20;99.90;;;;;;5040867;28;20029;-70
2020/12/05 01:22:25;;;;;;;33.70;20.67;;;3.20;99.90;;;;;;5037249;28;20033;-70
2020/12/05 01:24:51;;;;;;;33.65;22.67;;;3.30;99.90;;;;;;5040621;28;20025;-69
2020/12/05 01:27:17;;;;;;;35.13;21.48;;;3.30;99.90;;;;;;5032376;28;20117;-69
2020/12/05 01:29:44;;;;;;;34.80;21.15;;;3.40;99.90;;;;;;5028642;28;20420;-69
2020/12/05 01:32:10;;;;;;;34.13;22.20;;;3.50;99.90;;;;;;5033212;28;20021;-70
2020/12/05 01:34:35;;;;;;;32.00;21.27;;;3.50;99.90;;;;;;5030122;28;20029;-71
2020/12/05 01:37:01;;;;;;;32.53;22.98;;;3.60;99.90;;;;;;5027958;28;20052;-69
2020/12/05 01:39:26;;;;;;;33.80;21.33;;;3.60;99.90;;;;;;5052461;28;20101;-70
2020/12/05 01:41:52;;;;;;;31.73;21.88;;;3.60;99.90;;;;;;5048018;28;20061;-69
2020/12/05 01:44:18;;;;;;;33.20;21.30;;;3.60;99.90;;;;;;5042589;28;20053;-70
2020/12/05 01:46:44;;;;;;;31.63;20.90;;;3.60;99.90;;;;;;5047640;28;20026;-70
2020/12/05 01:49:15;;;;;;;29.45;19.98;;;3.70;99.90;;;;;;5046454;28;20075;-70
2020/12/05 01:51:41;;;;;;;32.65;20.08;;;3.70;99.90;;;;;;5036399;28;20032;-70
2020/12/05 01:54:07;;;;;;;35.17;21.15;;;4.00;99.90;;;;;;5048215;28;20056;-70
2020/12/05 01:56:33;;;;;;;38.50;22.70;;;4.30;99.90;;;;;;5044134;28;20016;-70
2020/12/05 01:58:59;;;;;;;32.38;20.92;;;4.30;99.90;;;;;;5043299;28;20354;-69
2020/12/05 02:01:26;;;;;;;32.60;22.40;;;4.10;99.90;;;;;;5036356;28;20113;-69
2020/12/05 02:03:59;;;;;;;34.85;21.20;;;4.00;99.90;;;;;;5028306;28;20515;-70
2020/12/05 02:06:29;;;;;;;30.40;21.23;;;3.90;99.90;;;;;;5018894;28;20038;-69
2020/12/05 02:09:20;;;;;;;32.38;21.58;;;3.90;99.90;;;;;;5026297;28;20366;-70
2020/12/05 02:12:09;;;;;;;;;;;3.80;99.90;;;;;;5021015;28;20068;-70
2020/12/05 02:14:38;;;;;;;30.60;19.90;;;3.70;99.90;;;;;;5018525;28;20419;-70
2020/12/05 02:17:05;;;;;;;38.65;21.25;;;3.90;99.90;;;;;;5024729;28;20044;-70
2020/12/05 02:19:42;;;;;;;40.28;20.92;;;3.80;99.90;;;;;;5024211;28;20049;-71
2020/12/05 02:22:12;;;;;;;39.22;22.67;;;3.80;99.90;;;;;;5025770;28;20065;-69
2020/12/05 02:24:38;;;;;;;36.75;21.75;;;3.60;99.90;;;;;;5022173;28;20496;-70
2020/12/05 02:27:04;;;;;;;38.83;24.08;;;3.60;99.90;;;;;;5027497;28;20570;-69
2020/12/05 02:29:31;;;;;;;39.75;23.17;;;3.50;99.90;;;;;;5038532;28;20037;-70
2020/12/05 02:31:57;;;;;;;46.28;25.02;;;3.40;99.90;;;;;;5050130;28;20021;-70
2020/12/05 02:34:23;;;;;;;32.38;20.88;;;3.30;99.90;;;;;;5048757;28;20035;-69
2020/12/05 02:36:51;;;;;;;28.55;17.63;;;3.30;99.90;;;;;;5041984;28;20029;-70
2020/12/05 02:39:18;;;;;;;23.98;17.13;;;3.30;99.90;;;;;;5047638;28;20021;-69
2020/12/05 02:41:44;;;;;;;23.90;16.33;;;3.30;99.90;;;;;;5036976;28;20021;-69
2020/12/05 02:44:09;;;;;;;22.27;15.80;;;3.30;99.90;;;;;;5041779;28;20481;-69
2020/12/05 02:46:35;;;;;;;19.98;14.18;;;3.30;99.90;;;;;;5032966;28;20029;-69
2020/12/05 02:49:01;;;;;;;18.13;13.07;;;3.40;99.90;;;;;;5041012;28;20108;-69
2020/12/05 02:51:26;;;;;;;15.32;12.35;;;3.40;99.90;;;;;;5026742;28;20025;-70
2020/12/05 02:53:52;;;;;;;12.60;11.30;;;3.40;99.90;;;;;;5038863;28;20030;-69
2020/12/05 02:56:18;;;;;;;16.38;12.43;;;3.40;99.90;;;;;;5036304;28;20037;-71
2020/12/05 02:58:47;;;;;;;14.18;11.98;;;3.40;99.90;;;;;;5039679;28;20048;-70
2020/12/05 03:01:13;;;;;;;13.95;12.45;;;3.30;99.90;;;;;;5035376;28;20128;-70
2020/12/05 03:03:40;;;;;;;12.57;10.95;;;3.40;99.90;;;;;;5044765;28;20017;-70
2020/12/05 03:06:06;;;;;;;13.50;11.13;;;3.40;99.90;;;;;;5036046;28;20033;-70
2020/12/05 03:08:31;;;;;;;17.23;12.77;;;3.30;99.90;;;;;;5040490;28;20443;-70
2020/12/05 03:10:57;;;;;;;13.73;12.27;;;3.30;99.90;;;;;;5039272;28;20071;-69
2020/12/05 03:13:22;;;;;;;16.77;13.68;;;3.30;99.90;;;;;;5028275;28;20024;-70
2020/12/05 03:15:48;;;;;;;15.63;13.20;;;3.30;99.90;;;;;;5029707;28;20022;-70
2020/12/05 03:18:13;;;;;;;15.15;12.82;;;3.30;99.90;;;;;;5028699;28;20031;-70
2020/12/05 03:20:39;;;;;;;16.05;11.27;;;3.30;99.90;;;;;;5032910;28;20029;-69
2020/12/05 03:23:05;;;;;;;13.18;11.43;;;3.20;99.90;;;;;;5039799;28;20108;-68
2020/12/05 03:25:30;;;;;;;13.10;11.55;;;3.20;99.90;;;;;;5046051;28;20079;-69
2020/12/05 03:27:56;;;;;;;14.93;12.95;;;3.20;99.90;;;;;;5042320;28;20065;-69
2020/12/05 03:30:21;;;;;;;14.05;12.43;;;3.20;99.90;;;;;;5034040;28;20076;-70
2020/12/05 03:32:48;;;;;;;13.50;12.10;;;3.20;99.90;;;;;;5034200;28;20026;-70
2020/12/05 03:35:14;;;;;;;14.70;13.05;;;3.40;99.90;;;;;;5042739;28;20442;-70
2020/12/05 03:37:39;;;;;;;13.07;11.68;;;3.50;99.90;;;;;;5034624;28;20021;-70
2020/12/05 03:40:06;;;;;;;15.10;12.98;;;3.50;99.90;;;;;;5051551;28;20109;-70
2020/12/05 03:42:32;;;;;;;12.95;11.65;;;3.40;99.90;;;;;;5040886;28;20108;-70
2020/12/05 03:44:57;;;;;;;13.90;12.43;;;3.30;99.90;;;;;;5046393;28;20032;-70
2020/12/05 03:47:23;;;;;;;14.25;12.75;;;3.20;99.90;;;;;;5011077;28;20534;-70
2020/12/05 03:49:49;;;;;;;14.27;12.18;;;3.10;99.90;;;;;;5030089;28;20376;-70
2020/12/05 03:52:15;;;;;;;15.02;12.65;;;3.10;99.90;;;;;;5025552;28;20022;-69
2020/12/05 03:54:43;;;;;;;13.32;11.70;;;3.10;99.90;;;;;;5025560;28;20041;-68
2020/12/05 03:57:09;;;;;;;14.57;12.65;;;3.10;99.90;;;;;;5029869;28;20088;-69
2020/12/05 03:59:35;;;;;;;13.75;12.35;;;3.10;99.90;;;;;;5028574;28;20100;-69
2020/12/05 04:02:00;;;;;;;13.07;11.27;;;3.10;99.90;;;;;;5027917;28;20045;-69
2020/12/05 04:04:26;;;;;;;14.90;11.23;;;3.10;99.90;;;;;;5022051;28;20037;-69
2020/12/05 04:06:51;;;;;;;15.85;12.73;;;3.40;99.90;;;;;;5034545;28;20052;-69
2020/12/05 04:09:17;;;;;;;18.17;12.95;;;3.50;99.90;;;;;;5034942;28;20044;-69
2020/12/05 04:11:43;;;;;;;20.00;14.45;;;3.20;99.90;;;;;;5043707;28;20140;-69
2020/12/05 04:14:10;;;;;;;16.00;13.65;;;3.00;99.90;;;;;;5036553;28;20048;-69
2020/12/05 04:16:36;;;;;;;17.80;13.20;;;2.90;99.90;;;;;;5032088;28;20058;-69
2020/12/05 04:19:02;;;;;;;19.63;15.75;;;2.80;99.90;;;;;;5025802;28;20045;-69
2020/12/05 04:21:28;;;;;;;18.73;15.57;;;2.80;99.90;;;;;;5047134;28;20029;-69
2020/12/05 04:23:54;;;;;;;17.98;14.38;;;2.80;99.90;;;;;;5043940;28;20041;-69
2020/12/05 04:26:21;;;;;;;20.15;15.77;;;2.70;99.90;;;;;;5037603;28;20029;-69
2020/12/05 04:28:47;;;;;;;17.50;15.15;;;2.70;99.90;;;;;;5053685;28;20112;-70
2020/12/05 04:31:13;;;;;;;19.48;14.57;;;2.80;99.90;;;;;;5044497;28;20385;-70
2020/12/05 04:33:38;;;;;;;16.85;14.80;;;2.80;99.90;;;;;;5053368;28;20024;-70
2020/12/05 04:36:04;;;;;;;19.60;14.30;;;2.90;99.90;;;;;;5054505;28;20033;-70
2020/12/05 04:38:30;;;;;;;17.85;13.82;;;2.90;99.90;;;;;;5051781;28;20021;-69
2020/12/05 04:40:59;;;;;;;18.83;15.23;;;3.20;99.90;;;;;;5038918;28;20025;-69
2020/12/05 04:43:25;;;;;;;17.67;13.75;;;3.50;99.90;;;;;;5042033;28;20156;-68
2020/12/05 04:45:53;;;;;;;19.63;14.05;;;3.70;99.90;;;;;;5041579;28;20033;-69
2020/12/05 04:48:19;;;;;;;13.98;12.13;;;3.50;99.90;;;;;;5040519;28;20061;-68
2020/12/05 04:50:46;;;;;;;15.50;13.77;;;3.50;99.90;;;;;;5020479;28;20034;-69
2020/12/05 04:53:20;;;;;;;19.95;14.82;;;3.50;99.90;;;;;;5036758;28;20040;-69
2020/12/05 04:55:46;;;;;;;18.27;13.30;;;3.30;99.90;;;;;;5035315;28;20060;-69
2020/12/05 04:58:20;;;;;;;16.73;14.07;;;3.20;99.90;;;;;;5033576;28;20021;-69
2020/12/05 05:00:49;;;;;;;18.75;13.98;;;3.00;99.90;;;;;;5030046;28;20040;-69
2020/12/05 05:03:18;;;;;;;16.30;14.38;;;3.00;99.90;;;;;;5049034;28;20083;-69
2020/12/05 05:05:44;;;;;;;17.00;13.45;;;2.90;99.90;;;;;;5041719;28;20021;-69
2020/12/05 05:08:12;;;;;;;17.45;13.73;;;2.80;99.90;;;;;;5034982;28;20025;-69
2020/12/05 05:10:38;;;;;;;15.77;13.35;;;2.80;99.90;;;;;;5037612;28;20534;-69
2020/12/05 05:13:12;;;;;;;14.00;12.48;;;2.80;99.90;;;;;;5053452;28;20055;-68
2020/12/05 05:15:38;;;;;;;15.38;13.55;;;2.80;99.90;;;;;;5053503;28;20026;-68
2020/12/05 05:18:04;;;;;;;14.80;11.73;;;2.80;99.90;;;;;;5029939;28;20064;-69
2020/12/05 05:20:39;;;;;;;15.48;13.52;;;2.80;99.90;;;;;;5031739;28;20026;-69
2020/12/05 05:23:07;;;;;;;16.30;13.15;;;2.80;99.90;;;;;;5054514;23;20090;-72
2020/12/05 05:25:47;;;;;;;14.45;12.98;;;2.90;99.90;;;;;;5040998;28;20382;-72
2020/12/05 05:28:17;;;;;;;15.10;12.20;;;2.90;99.90;;;;;;5041954;28;20018;-72
2020/12/05 05:30:54;;;;;;;15.40;12.52;;;3.00;99.90;;;;;;5032495;28;20056;-71
2020/12/05 05:33:19;;;;;;;15.02;12.23;;;3.00;99.90;;;;;;5016912;28;20021;-72
2020/12/05 05:35:45;;;;;;;12.93;11.55;;;3.00;99.90;;;;;;5012599;28;20029;-71
2020/12/05 05:38:20;;;;;;;13.77;11.73;;;3.00;99.90;;;;;;5014277;28;20164;-71
2020/12/05 05:40:46;;;;;;;15.13;11.93;;;3.00;99.90;;;;;;5012584;28;20026;-71
2020/12/05 05:43:19;;;;;;;14.55;11.75;;;3.10;99.90;;;;;;5018144;28;20480;-71
2020/12/05 05:45:45;;;;;;;13.30;11.90;;;3.10;99.90;;;;;;5013140;28;20035;-71
2020/12/05 05:48:12;;;;;;;15.02;10.82;;;3.30;99.90;;;;;;5011975;28;20414;-72
2020/12/05 05:50:38;;;;;;;11.90;10.70;;;3.20;99.90;;;;;;5003170;28;20022;-72
2020/12/05 05:53:10;;;;;;;12.52;11.23;;;3.20;99.90;;;;;;5018138;28;20101;-71
2020/12/05 05:55:43;;;;;;;12.32;10.95;;;3.20;99.90;;;;;;5015221;28;20029;-71
2020/12/05 05:58:11;;;;;;;12.52;11.20;;;3.20;99.90;;;;;;5011876;28;20033;-71
2020/12/05 06:00:42;;;;;;;13.02;11.63;;;3.20;99.90;;;;;;5017596;28;20022;-72
2020/12/05 06:03:24;;;;;;;12.40;11.10;;;3.20;99.90;;;;;;5006852;28;20538;-71
2020/12/05 06:05:52;;;;;;;15.15;13.02;;;3.10;99.90;;;;;;5013436;28;20092;-73
2020/12/05 06:08:29;;;;;;;13.93;11.95;;;3.10;99.90;;;;;;5009242;28;20054;-72
2020/12/05 06:11:01;;;;;;;13.00;10.68;;;3.10;99.90;;;;;;5021050;28;20061;-71
2020/12/05 06:13:29;;;;;;;13.60;10.88;;;3.10;99.90;;;;;;5001693;28;20029;-71
2020/12/05 06:15:56;;;;;;;14.25;11.70;;;3.30;99.90;;;;;;5007759;28;20068;-72
2020/12/05 06:18:22;;;;;;;14.13;11.93;;;3.30;99.90;;;;;;5008691;28;20052;-71
2020/12/05 06:20:48;;;;;;;14.02;11.88;;;3.20;99.90;;;;;;5011704;28;20062;-71
2020/12/05 06:23:39;;;;;;;20.55;13.88;;;3.10;99.90;;;;;;5012614;28;20044;-71
2020/12/05 06:26:12;;;;;;;14.07;12.65;;;3.00;99.90;;;;;;5001485;28;20026;-72
2020/12/05 06:28:38;;;;;;;11.88;10.68;;;3.00;99.90;;;;;;5009946;28;20033;-71
2020/12/05 06:31:05;;;;;;;14.05;11.85;;;2.90;99.90;;;;;;5014226;28;20425;-71
2020/12/05 06:33:44;;;;;;;11.60;10.40;;;2.90;99.90;;;;;;5021740;28;20092;-72
2020/12/05 06:36:27;;;;;;;12.00;10.65;;;2.90;99.90;;;;;;5010858;28;20037;-72
2020/12/05 06:39:05;;;;;;;14.52;12.32;;;2.90;99.90;;;;;;5007611;28;20026;-71
2020/12/05 06:41:36;;;;;;;15.80;12.05;;;2.90;99.90;;;;;;5017815;28;20075;-72
2020/12/05 06:44:31;;;;;;;13.38;11.63;;;2.90;99.90;;;;;;5025067;28;20053;-72
2020/12/05 06:46:59;;;;;;;15.40;12.20;;;2.90;99.90;;;;;;5010924;28;20432;-73
2020/12/05 06:49:43;;;;;;;11.82;10.60;;;2.90;99.90;;;;;;5018856;28;20056;-73
2020/12/05 06:52:24;;;;;;;12.20;10.85;;;2.90;99.90;;;;;;5012174;28;20109;-72
2020/12/05 06:55:05;;;;;;;14.18;12.45;;;2.90;99.90;;;;;;5003222;28;20034;-72
2020/12/05 06:57:32;;;;;;;12.50;11.20;;;3.00;99.90;;;;;;5009152;28;20026;-72
2020/12/05 07:00:13;;;;;;;14.32;10.15;;;3.00;99.90;;;;;;5016671;28;20052;-72
2020/12/05 07:02:39;;;;;;;13.85;9.02;;;3.00;99.90;;;;;;5010543;28;20033;-72
2020/12/05 07:05:21;;;;;;;11.10;8.80;;;3.10;99.90;;;;;;5011843;28;20080;-72
2020/12/05 07:07:47;;;;;;;9.20;8.30;;;3.20;99.90;;;;;;5016946;28;20143;-71
2020/12/05 07:10:13;;;;;;;8.20;7.40;;;3.30;99.90;;;;;;5019459;28;20030;-73
2020/12/05 07:12:40;;;;;;;7.93;7.13;;;3.20;99.90;;;;;;5006047;28;20074;-72
2020/12/05 07:15:27;;;;;;;9.10;7.60;;;3.20;99.90;;;;;;5015764;28;20049;-73
2020/12/05 07:17:53;;;;;;;12.55;8.45;;;3.10;99.90;;;;;;4999450;28;20034;-74
2020/12/05 07:20:19;;;;;;;9.43;8.38;;;3.20;99.90;;;;;;5015821;28;20022;-72
2020/12/05 07:22:48;;;;;;;9.82;8.52;;;3.20;99.90;;;;;;4998473;28;20528;-72
2020/12/05 07:25:14;;;;;;;10.45;8.45;;;3.10;99.90;;;;;;5001826;28;20153;-71
2020/12/05 07:27:39;;;;;;;9.90;8.63;;;3.10;99.90;;;;;;5004521;28;20481;-71
2020/12/05 07:30:08;;;;;;;12.43;9.63;;;3.10;99.90;;;;;;5013056;28;20450;-71
2020/12/05 07:32:36;;;;;;;10.02;8.13;;;3.10;99.90;;;;;;5017517;28;20033;-71
2020/12/05 07:35:05;;;;;;;10.38;9.38;;;3.10;99.90;;;;;;5015408;28;20037;-72
2020/12/05 07:37:33;;;;;;;13.07;9.20;;;3.10;99.90;;;;;;5008615;28;20393;-71
2020/12/05 07:39:59;;;;;;;9.70;8.68;;;3.10;99.90;;;;;;5017195;28;20033;-72
2020/12/05 07:42:35;;;;;;;7.85;7.05;;;3.10;99.90;;;;;;5015120;28;20109;-73
2020/12/05 07:45:09;;;;;;;7.10;5.10;;;3.10;99.90;;;;;;5020938;28;20432;-72
2020/12/05 07:47:35;;;;;;;7.40;5.70;;;3.20;99.90;;;;;;5016980;28;20034;-71
2020/12/05 07:50:02;;;;;;;7.95;4.82;;;3.20;99.90;;;;;;5004249;28;20053;-71
2020/12/05 07:52:28;;;;;;;5.20;4.70;;;3.30;99.90;;;;;;5018438;28;20084;-71
2020/12/05 07:54:58;;;;;;;5.40;4.90;;;3.30;99.90;;;;;;5028281;28;20029;-71
2020/12/05 07:57:30;;;;;;;6.00;4.88;;;3.40;99.90;;;;;;5011450;28;20034;-71
2020/12/05 08:00:07;;;;;;;6.28;4.75;;;3.40;99.90;;;;;;5010690;28;20074;-72
2020/12/05 08:02:35;;;;;;;5.13;4.43;;;3.40;99.90;;;;;;5002426;28;20462;-72
2020/12/05 08:05:09;;;;;;;4.53;4.13;;;3.40;99.90;;;;;;5009507;28;20026;-72
2020/12/05 08:07:45;;;;;;;6.70;3.92;;;3.50;99.90;;;;;;5009280;28;20034;-70
2020/12/05 08:10:15;;;;;;;4.63;4.05;;;3.50;99.90;;;;;;5005326;28;20034;-71
2020/12/05 08:12:53;;;;;;;5.97;5.30;;;3.50;99.90;;;;;;5016890;28;20025;-71
2020/12/05 08:15:20;;;;;;;6.72;3.83;;;3.50;99.90;;;;;;5014519;28;20393;-71
2020/12/05 08:17:46;;;;;;;4.43;3.60;;;3.60;99.90;;;;;;5021954;28;20040;-71
2020/12/05 08:20:14;;;;;;;5.45;4.03;;;3.60;99.90;;;;;;5018090;28;20038;-73
2020/12/05 08:22:39;;;;;;;4.05;3.65;;;3.70;99.90;;;;;;5024985;28;20378;-74
2020/12/05 08:25:06;;;;;;;8.38;5.10;;;3.90;99.90;;;;;;5024474;28;20052;-75
2020/12/05 08:27:32;;;;;;;6.85;4.63;;;4.00;99.90;;;;;;5025572;28;20033;-73
2020/12/05 08:29:59;;;;;;;6.22;5.60;;;4.10;99.90;;;;;;5014870;28;20038;-73
2020/12/05 08:32:25;;;;;;;8.48;5.60;;;4.00;99.90;;;;;;5024596;28;20022;-73
2020/12/05 08:35:14;;;;;;;9.85;5.78;;;3.90;99.90;;;;;;5030759;28;20029;-73
2020/12/05 08:37:45;;;;;;;6.45;5.57;;;3.80;99.90;;;;;;5033854;28;20053;-74
2020/12/05 08:40:18;;;;;;;6.15;5.22;;;3.90;99.90;;;;;;5040458;28;20044;-73
2020/12/05 08:42:47;;;;;;;8.82;6.50;;;4.00;99.90;;;;;;5041308;28;20025;-72
2020/12/05 08:45:14;;;;;;;7.30;5.90;;;4.10;99.90;;;;;;5036030;28;20076;-73
2020/12/05 08:47:44;;;;;;;6.65;5.70;;;4.30;99.90;;;;;;5048481;28;20080;-74
2020/12/05 08:50:38;;;;;;;8.55;6.03;;;4.30;99.90;;;;;;5024232;28;20506;-74
2020/12/05 08:53:05;;;;;;;7.32;6.40;;;4.40;99.90;;;;;;5016471;28;20066;-72
2020/12/05 08:55:32;;;;;;;6.68;5.72;;;4.50;99.90;;;;;;5050303;28;20049;-73
2020/12/05 08:58:06;;;;;;;6.55;5.85;;;4.70;99.90;;;;;;5055237;28;20550;-72
2020/12/05 09:00:33;;;;;;;9.32;5.75;;;4.60;99.90;;;;;;5035074;28;20006;-73
2020/12/05 09:02:59;;;;;;;7.70;5.63;;;4.70;99.90;;;;;;5043401;28;20048;-73
2020/12/05 09:05:25;;;;;;;7.00;6.35;;;4.60;99.90;;;;;;5036676;28;20041;-75
2020/12/05 09:07:56;;;;;;;6.78;5.30;;;4.60;99.90;;;;;;5039789;28;20056;-74
2020/12/05 09:10:22;;;;;;;6.35;5.60;;;4.40;99.90;;;;;;5041661;28;20109;-74
2020/12/05 09:12:48;;;;;;;7.45;6.03;;;4.30;99.90;;;;;;5021403;28;20026;-74
2020/12/05 09:15:14;;;;;;;6.55;5.20;;;4.50;99.90;;;;;;5028125;28;20054;-74
2020/12/05 09:17:39;;;;;;;5.30;4.85;;;4.60;99.90;;;;;;5027986;28;20029;-73
2020/12/05 09:20:21;;;;;;;5.72;5.07;;;4.90;99.90;;;;;;5022483;28;20086;-74
2020/12/05 09:22:48;;;;;;;5.82;4.88;;;5.00;99.90;;;;;;5026008;28;20084;-74
2020/12/05 09:25:25;;;;;;;6.95;5.07;;;5.00;99.90;;;;;;5022518;28;20041;-75
2020/12/05 09:27:51;;;;;;;5.95;5.07;;;5.00;99.90;;;;;;5012196;28;20038;-73
2020/12/05 09:30:17;;;;;;;5.88;4.93;;;5.10;99.90;;;;;;5022160;28;20116;-73
2020/12/05 09:32:47;;;;;;;6.47;5.13;;;5.10;99.90;;;;;;5038756;28;20085;-74
2020/12/05 09:35:21;;;;;;;7.82;5.70;;;5.10;99.90;;;;;;5038705;28;20068;-75
2020/12/05 09:37:47;;;;;;;6.20;5.60;;;5.20;99.90;;;;;;5027755;28;20054;-73
2020/12/05 09:40:14;;;;;;;8.20;6.05;;;5.00;99.90;;;;;;5033492;28;20084;-74
2020/12/05 09:42:41;;;;;;;8.00;5.30;;;4.80;99.90;;;;;;5027845;28;20032;-74
2020/12/05 09:45:08;;;;;;;7.15;6.40;;;4.70;99.90;;;;;;5023292;28;20022;-73
2020/12/05 09:47:34;;;;;;;7.13;6.18;;;4.70;99.90;;;;;;5020413;28;20052;-74
2020/12/05 09:50:00;;;;;;;7.72;6.20;;;4.70;99.90;;;;;;5014508;28;20037;-72
2020/12/05 09:52:26;;;;;;;6.25;5.65;;;4.80;99.90;;;;;;5008090;28;20021;-73
2020/12/05 09:54:52;;;;;;;7.50;5.90;;;4.70;99.90;;;;;;5008703;28;20384;-75
2020/12/05 09:57:18;;;;;;;7.68;6.38;;;4.70;99.90;;;;;;5014191;28;20101;-75
2020/12/05 09:59:45;;;;;;;10.30;6.25;;;4.60;99.90;;;;;;5014898;28;20100;-73
2020/12/05 10:02:11;;;;;;;6.60;6.00;;;4.60;99.90;;;;;;5018930;28;20109;-73
2020/12/05 10:04:37;;;;;;;5.72;5.15;;;4.60;99.90;;;;;;5022201;28;20451;-74
2020/12/05 10:07:03;;;;;;;8.63;6.00;;;4.60;99.90;;;;;;5026352;28;20056;-74
2020/12/05 10:09:28;;;;;;;6.70;6.07;;;4.70;99.90;;;;;;5017114;28;20026;-72
2020/12/05 10:11:54;;;;;;;10.25;5.75;;;4.60;99.90;;;;;;5018908;28;20033;-73
2020/12/05 10:14:19;;;;;;;5.53;5.03;;;4.70;99.90;;;;;;5012904;28;20034;-73
2020/12/05 10:16:45;;;;;;;5.88;5.03;;;5.00;99.90;;;;;;5019450;28;20090;-74
2020/12/05 10:19:10;;;;;;;6.78;6.18;;;5.00;99.90;;;;;;5016769;28;20092;-74
2020/12/05 10:21:36;;;;;;;6.25;5.65;;;5.00;99.90;;;;;;5025213;28;20033;-73
2020/12/05 10:24:02;;;;;;;6.70;5.97;;;5.20;99.90;;;;;;5016548;28;20030;-73
2020/12/05 10:26:27;;;;;;;6.43;5.63;;;5.30;99.90;;;;;;5025163;28;20049;-74
2020/12/05 10:28:53;;;;;;;9.52;6.20;;;5.60;99.90;;;;;;5026441;28;20041;-75
2020/12/05 10:31:19;;;;;;;7.05;6.35;;;5.60;99.90;;;;;;5020528;28;20041;-72
2020/12/05 10:33:44;;;;;;;7.93;6.43;;;5.60;99.90;;;;;;5023428;28;20393;-74
2020/12/05 10:36:10;;;;;;;7.22;5.45;;;5.60;99.90;;;;;;5043922;28;20489;-73
2020/12/05 10:38:35;;;;;;;8.27;6.40;;;5.50;99.90;;;;;;5038130;28;20026;-73
2020/12/05 10:41:01;;;;;;;6.95;6.25;;;5.40;99.90;;;;;;5018918;28;20038;-72
2020/12/05 10:43:26;;;;;;;7.68;5.63;;;5.10;99.90;;;;;;5020860;28;20026;-72
2020/12/05 10:45:52;;;;;;;6.90;5.47;;;5.70;99.90;;;;;;5012186;28;20060;-73
2020/12/05 10:48:17;;;;;;;6.82;6.13;;;6.10;99.90;;;;;;5023063;28;20387;-74
2020/12/05 10:50:43;;;;;;;7.95;5.50;;;6.00;99.90;;;;;;5020144;28;20026;-74
2020/12/05 10:53:08;;;;;;;6.85;5.97;;;5.90;99.90;;;;;;5022780;28;20034;-73
2020/12/05 10:55:34;;;;;;;9.05;5.97;;;5.60;99.90;;;;;;5005574;28;20052;-73
2020/12/05 10:58:00;;;;;;;7.18;5.43;;;5.40;99.90;;;;;;5004924;28;20460;-73
2020/12/05 11:00:25;;;;;;;6.35;5.75;;;5.30;99.90;;;;;;5006665;28;20433;-75
2020/12/05 11:02:51;;;;;;;6.18;5.55;;;5.30;99.90;;;;;;5013769;28;20079;-73
2020/12/05 11:05:17;;;;;;;6.32;4.95;;;5.30;99.90;;;;;;5010311;28;20092;-73
2020/12/05 11:07:42;;;;;;;7.22;5.72;;;5.30;99.90;;;;;;5010907;28;20080;-74
2020/12/05 11:10:08;;;;;;;6.55;5.90;;;5.20;99.90;;;;;;5011331;28;20358;-73
2020/12/05 11:12:34;;;;;;;6.97;6.28;;;5.20;99.90;;;;;;5006405;28;20018;-73
2020/12/05 11:15:00;;;;;;;6.90;6.20;;;5.30;99.90;;;;;;5007749;28;20026;-74
2020/12/05 11:17:25;;;;;;;7.75;6.95;;;5.50;99.90;;;;;;5005180;28;20049;-74
2020/12/05 11:19:51;;;;;;;7.72;6.80;;;5.50;99.90;;;;;;5017062;28;20041;-73
2020/12/05 11:24:44;;;;;;;9.02;8.13;;;5.80;99.90;;;;;;5015595;28;20394;-72
2020/12/05 11:27:10;;;;;;;8.50;7.15;;;5.90;99.90;;;;;;5017074;28;20088;-71
2020/12/05 11:29:35;;;;;;;8.45;7.65;;;6.00;99.90;;;;;;5027791;28;20022;-71
2020/12/05 11:32:01;;;;;;;8.85;7.78;;;6.10;99.90;;;;;;5022134;28;20052;-71
2020/12/05 11:34:27;;;;;;;9.00;7.85;;;6.10;99.90;;;;;;5014967;28;20401;-70
2020/12/05 11:36:52;;;;;;;9.82;8.30;;;6.10;99.90;;;;;;5007791;28;20026;-70
2020/12/05 11:39:18;;;;;;;12.88;8.02;;;5.90;99.90;;;;;;5008565;28;20796;-71
2020/12/05 11:41:43;;;;;;;11.40;8.20;;;5.90;99.90;;;;;;5012469;28;20029;-72
2020/12/05 11:44:09;;;;;;;9.98;8.98;;;6.00;99.90;;;;;;5006127;28;20038;-71
2020/12/05 11:46:36;;;;;;;10.23;8.45;;;5.90;99.90;;;;;;4995213;28;20405;-71
2020/12/05 11:49:01;;;;;;;9.30;8.15;;;5.70;99.90;;;;;;5000339;28;20029;-72
2020/12/05 11:51:28;;;;;;;11.45;9.40;;;5.70;99.90;;;;;;4993815;28;20026;-70
2020/12/05 11:53:54;;;;;;;12.55;8.45;;;5.50;99.90;;;;;;5006492;28;20105;-70
2020/12/05 11:56:21;;;;;;;9.75;8.75;;;5.60;99.90;;;;;;4997552;28;20129;-71
2020/12/05 11:58:47;;;;;;;10.70;9.18;;;5.70;99.90;;;;;;4997623;28;20037;-71
2020/12/05 12:01:13;;;;;;;10.50;9.40;;;5.80;99.90;;;;;;4996627;28;20029;-72
2020/12/05 12:03:40;;;;;;;11.05;9.65;;;5.80;99.90;;;;;;4992257;28;20377;-71
2020/12/05 12:06:06;;;;;;;12.43;9.32;;;5.60;99.90;;;;;;4999486;28;20030;-71
2020/12/05 12:08:34;;;;;;;11.52;10.32;;;5.70;99.90;;;;;;4998254;28;20026;-72
2020/12/05 12:11:00;;;;;;;11.52;10.45;;;5.60;99.90;;;;;;5010317;28;20124;-71
2020/12/05 12:13:25;;;;;;;10.77;9.23;;;5.70;99.90;;;;;;5005829;28;20091;-72
2020/12/05 12:15:51;;;;;;;11.60;9.57;;;5.80;99.90;;;;;;4999591;28;20030;-71
2020/12/05 12:18:16;;;;;;;9.18;8.30;;;5.80;99.90;;;;;;4994954;28;20031;-71
2020/12/05 12:20:42;;;;;;;12.25;9.10;;;5.70;99.90;;;;;;5010196;28;20083;-72
2020/12/05 12:23:07;;;;;;;9.45;7.85;;;5.60;99.90;;;;;;5005359;28;20034;-75
2020/12/05 12:25:33;;;;;;;9.77;8.80;;;5.50;99.90;;;;;;5010794;28;20030;-74
2020/12/05 12:27:59;;;;;;;9.38;8.30;;;5.40;99.90;;;;;;5001812;28;20045;-73
2020/12/05 12:30:24;;;;;;;10.48;8.60;;;5.40;99.90;;;;;;5001649;28;20035;-73
2020/12/05 12:32:50;;;;;;;8.30;7.45;;;5.60;99.90;;;;;;5002589;28;20053;-73
2020/12/05 12:35:15;;;;;;;10.75;8.55;;;5.70;99.90;;;;;;5016005;28;20021;-74
2020/12/05 12:37:41;;;;;;;10.23;8.55;;;5.60;99.90;;;;;;5004637;28;20030;-74
2020/12/05 12:40:07;;;;;;;11.32;8.88;;;5.80;99.90;;;;;;5008757;28;20053;-73
2020/12/05 12:42:33;;;;;;;10.35;8.18;;;5.90;99.90;;;;;;4999050;28;20077;-74
2020/12/05 12:44:58;;;;;;;9.35;8.38;;;5.80;99.90;;;;;;5007116;28;20030;-74
2020/12/05 12:50:03;;;;;;;9.88;8.98;;;5.70;99.90;;;;;;5005004;28;20025;-73
2020/12/05 12:52:28;;;;;;;10.93;8.93;;;5.70;99.90;;;;;;5000243;28;20022;-73
2020/12/05 12:54:54;;;;;;;9.85;8.85;;;5.90;99.90;;;;;;5016285;28;20033;-74